Time;durP1;ratioP1;P1;durP2;ratioP2;P2;SDS_P1;SDS_P2;PMS_P1;PMS_P2;Temp;Humidity;BMP_temperature;BMP_pressure;BME280_temperature;BME280_humidity;BME280_pressure;Samples;Min_cycle;Max_cycle;Signal;HPM_P1;HPM_P2
2024/04/09 00:01:01;;;;;;;1.33;0.64;;;;;;;;;;6460499;25;10000560;-76
2024/04/09 00:04:02;;;;;;;0.90;0.77;;;;;;;;;;6808586;26;20621;-75
2024/04/09 00:07:02;;;;;;;1.15;0.80;;;;;;;;;;6844839;26;20014;-75
2024/04/09 00:10:06;;;;;;;0.50;0.50;;;;;;;;;;6804403;26;19997;-76
2024/04/09 00:13:06;;;;;;;0.80;0.70;;;;;;;;;;6845513;26;20029;-79
2024/04/09 00:16:12;;;;;;;0.63;0.63;;;;;;;;;;6837612;25;20008;-75
2024/04/09 00:19:17;;;;;;;0.77;0.77;;;;;;;;;;6816251;26;20020;-75
2024/04/09 00:22:17;;;;;;;1.10;0.90;;;;;;;;;;6836165;26;20434;-76
2024/04/09 00:25:18;;;;;;;0.57;0.57;;;;;;;;;;6843265;26;20016;-75
2024/04/09 00:28:19;;;;;;;1.83;0.70;;;;;;;;;;6836267;25;20069;-75
2024/04/09 00:31:20;;;;;;;0.67;0.60;;;;;;;;;;6805486;26;20360;-76
2024/04/09 00:34:22;;;;;;;0.70;0.70;;;;;;;;;;6836976;26;20218;-76
2024/04/09 00:37:22;;;;;;;1.08;0.73;;;;;;;;;;6846722;26;20025;-78
2024/04/09 00:40:29;;;;;;;0.80;0.60;;;;;;;;;;6843030;26;20004;-77
2024/04/09 00:43:29;;;;;;;1.35;0.70;;;;;;;;;;6831238;26;20271;-75
2024/04/09 00:46:30;;;;;;;0.50;0.50;;;;;;;;;;6837842;25;20334;-75
2024/04/09 00:49:33;;;;;;;0.77;0.50;;;;;;;;;;6840780;25;20572;-75
2024/04/09 00:52:34;;;;;;;0.77;0.50;;;;;;;;;;6847399;26;20450;-75
2024/04/09 00:55:34;;;;;;;0.47;0.47;;;;;;;;;;6845003;26;20009;-76
2024/04/09 00:58:35;;;;;;;1.02;0.70;;;;;;;;;;6844603;26;20038;-77
2024/04/09 01:01:35;;;;;;;1.15;0.60;;;;;;;;;;6838877;25;20010;-77
2024/04/09 01:04:35;;;;;;;0.57;0.57;;;;;;;;;;6808199;26;20067;-77
2024/04/09 01:07:37;;;;;;;0.60;0.50;;;;;;;;;;6845790;26;20534;-78
2024/04/09 01:10:37;;;;;;;1.17;0.60;;;;;;;;;;6841350;26;20226;-77
2024/04/09 01:13:39;;;;;;;0.50;0.50;;;;;;;;;;6817074;25;20065;-77
2024/04/09 01:16:39;;;;;;;0.73;0.63;;;;;;;;;;6798958;26;20235;-77
2024/04/09 01:19:39;;;;;;;0.60;0.47;;;;;;;;;;6833944;25;20000;-77
2024/04/09 01:22:40;;;;;;;0.77;0.50;;;;;;;;;;6837178;25;20013;-77
2024/04/09 01:25:40;;;;;;;3.30;0.65;;;;;;;;;;6849659;26;20293;-79
2024/04/09 01:28:41;;;;;;;0.50;0.50;;;;;;;;;;6840519;25;20002;-80
2024/04/09 01:31:42;;;;;;;1.52;0.70;;;;;;;;;;6843147;26;21689;-78
2024/04/09 01:34:44;;;;;;;0.50;0.50;;;;;;;;;;6836295;26;19993;-78
2024/04/09 01:37:44;;;;;;;0.55;0.50;;;;;;;;;;6839650;25;20234;-79
2024/04/09 01:40:49;;;;;;;0.50;0.50;;;;;;;;;;6809463;26;20079;-78
2024/04/09 01:43:50;;;;;;;0.80;0.52;;;;;;;;;;6843647;26;20354;-78
2024/04/09 01:46:51;;;;;;;0.40;0.40;;;;;;;;;;6842825;26;19997;-78
2024/04/09 01:49:52;;;;;;;;;;;;;;;;;;6828169;26;20092;-78
2024/04/09 01:52:53;;;;;;;0.53;0.40;;;;;;;;;;6835785;25;19929;-78
2024/04/09 01:56:03;;;;;;;1.17;0.52;;;;;;;;;;6838407;25;19993;-78
2024/04/09 01:59:03;;;;;;;0.50;0.50;;;;;;;;;;6829873;26;19999;-78
2024/04/09 02:02:03;;;;;;;;;;;;;;;;;;6848277;26;20001;-78
2024/04/09 02:05:04;;;;;;;0.98;0.43;;;;;;;;;;6801974;25;19924;-78
2024/04/09 02:08:05;;;;;;;0.50;0.40;;;;;;;;;;6841858;26;20002;-78
2024/04/09 02:11:05;;;;;;;;;;;;;;;;;;6837523;25;20017;-78
2024/04/09 02:14:05;;;;;;;0.60;0.43;;;;;;;;;;6810587;26;19933;-78
2024/04/09 02:17:05;;;;;;;0.47;0.43;;;;;;;;;;6836906;26;19992;-78
2024/04/09 02:20:09;;;;;;;0.85;0.43;;;;;;;;;;6849427;26;20747;-78
2024/04/09 02:23:10;;;;;;;0.60;0.60;;;;;;;;;;6828623;26;20008;-78
2024/04/09 02:26:10;;;;;;;;;;;;;;;;;;6844097;26;20005;-78
2024/04/09 02:29:10;;;;;;;0.40;0.38;;;;;;;;;;6828708;25;19930;-78
2024/04/09 02:32:11;;;;;;;;;;;;;;;;;;6833712;25;20331;-78
2024/04/09 02:35:11;;;;;;;0.50;0.50;;;;;;;;;;6844532;26;19924;-80
2024/04/09 02:38:11;;;;;;;;;;;;;;;;;;6842004;26;20518;-80
2024/04/09 02:41:14;;;;;;;0.57;0.40;;;;;;;;;;6840433;26;19927;-79
2024/04/09 02:44:14;;;;;;;0.98;0.40;;;;;;;;;;6845573;26;19998;-78
2024/04/09 02:47:14;;;;;;;;;;;;;;;;;;6847570;25;20047;-79
2024/04/09 02:50:15;;;;;;;0.70;0.43;;;;;;;;;;6830318;25;19924;-78
2024/04/09 02:53:16;;;;;;;0.52;0.47;;;;;;;;;;6845200;26;19994;-78
2024/04/09 02:56:16;;;;;;;;;;;;;;;;;;6845337;26;20004;-78
2024/04/09 02:59:17;;;;;;;0.40;0.40;;;;;;;;;;6839264;26;19939;-78
2024/04/09 03:02:18;;;;;;;;;;;;;;;;;;6842365;26;20001;-78
2024/04/09 03:05:19;;;;;;;0.40;0.40;;;;;;;;;;6840950;25;19930;-80
2024/04/09 03:08:20;;;;;;;0.70;0.50;;;;;;;;;;6843930;26;20001;-78
2024/04/09 03:11:21;;;;;;;;;;;;;;;;;;6811232;26;20003;-78
2024/04/09 03:14:21;;;;;;;0.55;0.50;;;;;;;;;;6843075;25;19923;-78
2024/04/09 03:17:21;;;;;;;0.30;0.30;;;;;;;;;;6848116;26;19998;-79
2024/04/09 03:20:21;;;;;;;;;;;;;;;;;;6851527;26;19990;-79
2024/04/09 03:23:21;;;;;;;0.80;0.40;;;;;;;;;;6840750;25;19923;-78
2024/04/09 03:26:22;;;;;;;;;;;;;;;;;;6848267;26;19994;-79
2024/04/09 03:29:24;;;;;;;0.40;0.40;;;;;;;;;;6820654;26;19930;-78
2024/04/09 03:32:24;;;;;;;0.80;0.60;;;;;;;;;;6840558;26;20532;-80
2024/04/09 03:35:24;;;;;;;;;;;;;;;;;;6847258;25;19989;-78
2024/04/09 03:38:24;;;;;;;1.50;0.60;;;;;;;;;;6840685;25;19923;-78
2024/04/09 03:41:24;;;;;;;;;;;;;;;;;;6843869;26;20550;-79
2024/04/09 03:44:25;;;;;;;0.93;0.40;;;;;;;;;;6840531;25;19930;-78
2024/04/09 03:47:25;;;;;;;;;;;;;;;;;;6836733;26;20004;-78
2024/04/09 03:50:26;;;;;;;1.85;0.57;;;;;;;;;;6820624;26;19923;-78
2024/04/09 03:53:26;;;;;;;;;;;;;;;;;;6842395;25;20121;-78
2024/04/09 03:56:26;;;;;;;0.75;0.40;;;;;;;;;;6843506;26;19923;-78
2024/04/09 03:59:26;;;;;;;;;;;;;;;;;;6803331;26;20470;-78
2024/04/09 04:02:27;;;;;;;1.40;0.43;;;;;;;;;;6790532;26;20004;-78
2024/04/09 04:05:27;;;;;;;2.80;0.68;;;;;;;;;;6829743;26;20002;-79
2024/04/09 04:08:28;;;;;;;;;;;;;;;;;;6816285;26;20091;-78
2024/04/09 04:11:30;;;;;;;0.93;0.50;;;;;;;;;;6821000;25;19931;-78
2024/04/09 04:14:31;;;;;;;1.90;0.70;;;;;;;;;;6817878;25;20446;-78
2024/04/09 04:17:31;;;;;;;;;;;;;;;;;;6826179;26;20005;-79
2024/04/09 04:20:31;;;;;;;1.80;0.70;;;;;;;;;;6813249;25;19932;-78
2024/04/09 04:23:31;;;;;;;;;;;;;;;;;;6817051;25;20003;-78
2024/04/09 04:26:31;;;;;;;1.33;1.05;;;;;;;;;;6828903;26;19936;-78
2024/04/09 04:29:32;;;;;;;;;;;;;;;;;;6835882;25;19986;-76
2024/04/09 04:32:32;;;;;;;1.95;1.10;;;;;;;;;;6805373;26;19923;-78
2024/04/09 04:35:32;;;;;;;1.40;0.93;;;;;;;;;;6825779;26;19995;-75
2024/04/09 04:38:32;;;;;;;;;;;;;;;;;;6824932;25;19994;-76
2024/04/09 04:41:32;;;;;;;1.20;0.70;;;;;;;;;;6826593;26;19923;-75
2024/04/09 04:44:33;;;;;;;1.53;0.73;;;;;;;;;;6815705;26;20458;-75
2024/04/09 04:47:33;;;;;;;;;;;;;;;;;;6793673;26;20582;-78
2024/04/09 04:50:33;;;;;;;0.70;0.65;;;;;;;;;;6818202;25;19955;-75
2024/04/09 04:53:34;;;;;;;1.25;0.60;;;;;;;;;;6806597;26;20006;-75
2024/04/09 04:56:35;;;;;;;2.05;0.75;;;;;;;;;;6819924;26;19994;-75
2024/04/09 04:59:35;;;;;;;1.75;0.90;;;;;;;;;;6833606;25;20023;-75
2024/04/09 05:02:35;;;;;;;;;;;;;;;;;;6820530;25;20541;-75
2024/04/09 05:05:36;;;;;;;0.63;0.50;;;;;;;;;;6829024;25;19924;-75
2024/04/09 05:08:36;;;;;;;0.80;0.70;;;;;;;;;;6819701;25;20502;-78
2024/04/09 05:11:37;;;;;;;0.80;0.70;;;;;;;;;;6823498;25;20366;-78
2024/04/09 05:14:37;;;;;;;;;;;;;;;;;;6814365;26;20374;-78
2024/04/09 05:17:37;;;;;;;0.82;0.60;;;;;;;;;;6840142;25;19923;-80
2024/04/09 05:20:39;;;;;;;0.70;0.70;;;;;;;;;;6827596;26;20006;-80
2024/04/09 05:23:39;;;;;;;0.80;0.70;;;;;;;;;;6820804;25;20044;-78
2024/04/09 05:26:40;;;;;;;1.20;0.90;;;;;;;;;;6822612;26;20455;-78
2024/04/09 05:29:40;;;;;;;;;;;;;;;;;;6830833;25;20450;-78
2024/04/09 05:32:44;;;;;;;1.77;0.70;;;;;;;;;;6828243;25;19956;-76
2024/04/09 05:35:44;;;;;;;1.85;1.02;;;;;;;;;;6819452;25;20350;-75
2024/04/09 05:38:44;;;;;;;2.00;0.70;;;;;;;;;;6811387;26;19994;-79
2024/04/09 05:41:44;;;;;;;;;;;;;;;;;;6786764;26;20022;-76
2024/04/09 05:44:46;;;;;;;1.05;0.88;;;;;;;;;;6823897;26;20331;-76
2024/04/09 05:47:47;;;;;;;2.60;0.80;;;;;;;;;;6827223;26;20078;-76
2024/04/09 05:50:47;;;;;;;0.95;0.75;;;;;;;;;;6823057;25;20418;-75
2024/04/09 05:53:47;;;;;;;;;;;;;;;;;;6813197;26;19994;-75
2024/04/09 05:56:48;;;;;;;0.88;0.60;;;;;;;;;;6827835;25;19956;-76
2024/04/09 05:59:49;;;;;;;1.27;0.80;;;;;;;;;;6828367;26;20466;-78
2024/04/09 06:02:49;;;;;;;;;;;;;;;;;;6817399;26;20026;-74
2024/04/09 06:05:51;;;;;;;0.80;0.70;;;;;;;;;;6827252;26;19931;-75
2024/04/09 06:08:51;;;;;;;0.95;0.60;;;;;;;;;;6816372;26;20026;-75
2024/04/09 06:11:51;;;;;;;1.13;0.90;;;;;;;;;;6824283;25;20691;-75
2024/04/09 06:14:51;;;;;;;;;;;;;;;;;;6820062;26;20443;-76
2024/04/09 06:17:52;;;;;;;0.70;0.60;;;;;;;;;;6823540;26;19923;-78
2024/04/09 06:20:52;;;;;;;;;;;;;;;;;;6816709;26;20442;-74
2024/04/09 06:23:52;;;;;;;1.25;0.70;;;;;;;;;;6831967;26;19992;-76
2024/04/09 06:26:52;;;;;;;;;;;;;;;;;;6830470;25;20431;-76
2024/04/09 06:29:52;;;;;;;0.73;0.70;;;;;;;;;;6818892;26;19935;-76
2024/04/09 06:32:52;;;;;;;;;;;;;;;;;;6827677;26;20469;-76
2024/04/09 06:35:53;;;;;;;0.60;0.60;;;;;;;;;;6825871;26;19932;-77
2024/04/09 06:38:53;;;;;;;;;;;;;;;;;;6819908;26;20443;-77
2024/04/09 06:41:53;;;;;;;1.10;0.60;;;;;;;;;;6817429;26;19925;-78
2024/04/09 06:44:54;;;;;;;;;;;;;;;;;;6823940;25;20006;-77
2024/04/09 06:47:55;;;;;;;1.20;0.77;;;;;;;;;;6826122;26;20288;-78
2024/04/09 06:50:55;;;;;;;1.58;1.10;;;;;;;;;;6818551;26;20446;-77
2024/04/09 06:53:55;;;;;;;0.90;0.80;;;;;;;;;;6839697;26;20008;-80
2024/04/09 06:56:55;;;;;;;;;;;;;;;;;;6834428;26;20426;-76
2024/04/09 06:59:55;;;;;;;1.27;0.80;;;;;;;;;;6825252;26;19924;-78
2024/04/09 07:02:57;;;;;;;;;;;;;;;;;;6892457;25;20458;-79
2024/04/09 07:05:58;;;;;;;1.15;0.90;;;;;;;;;;6832945;26;19924;-84
2024/04/09 07:09:02;;;;;;;;;;;;;;;;;;6819244;26;19997;-81
2024/04/09 07:12:02;;;;;;;1.65;0.88;;;;;;;;;;6796590;25;19923;-83
2024/04/09 07:15:03;;;;;;;;;;;;;;;;;;6863089;26;19989;-79
2024/04/09 07:18:03;;;;;;;0.73;0.50;;;;;;;;;;6825869;26;20376;-77
2024/04/09 07:21:03;;;;;;;1.30;0.75;;;;;;;;;;6840267;25;19990;-79
2024/04/09 07:24:05;;;;;;;1.42;1.00;;;;;;;;;;6836305;25;20127;-79
2024/04/09 07:27:05;;;;;;;1.42;1.00;;;;;;;;;;6849382;25;20077;-79
2024/04/09 07:30:06;;;;;;;1.17;0.90;;;;;;;;;;6817198;26;19994;-79
2024/04/09 07:33:07;;;;;;;0.98;0.80;;;;;;;;;;6849397;26;20438;-80
2024/04/09 07:36:07;;;;;;;1.80;1.10;;;;;;;;;;6861870;26;20032;-79
2024/04/09 07:39:08;;;;;;;1.23;1.10;;;;;;;;;;6856625;25;20441;-79
2024/04/09 07:42:08;;;;;;;2.35;1.13;;;;;;;;;;6856583;26;20596;-79
2024/04/09 07:45:09;;;;;;;1.60;1.10;;;;;;;;;;6846886;26;20100;-79
2024/04/09 07:48:12;;;;;;;2.58;1.05;;;;;;;;;;6813056;26;20239;-80
2024/04/09 07:51:12;;;;;;;1.80;1.02;;;;;;;;;;6835100;26;19997;-80
2024/04/09 07:54:13;;;;;;;1.20;0.98;;;;;;;;;;6830964;25;20029;-82
2024/04/09 07:57:14;;;;;;;0.85;0.75;;;;;;;;;;6846707;26;20065;-81
2024/04/09 08:00:14;;;;;;;2.05;1.20;;;;;;;;;;6849378;26;20008;-78
2024/04/09 08:03:15;;;;;;;1.92;1.05;;;;;;;;;;6839863;25;19998;-79
2024/04/09 08:06:15;;;;;;;1.77;1.30;;;;;;;;;;6855279;25;20355;-78
2024/04/09 08:09:16;;;;;;;1.33;1.00;;;;;;;;;;6852623;26;20776;-76
2024/04/09 08:12:16;;;;;;;1.85;0.75;;;;;;;;;;6818680;26;20001;-78
2024/04/09 08:15:20;;;;;;;3.33;0.97;;;;;;;;;;6829746;25;20341;-77
2024/04/09 08:18:24;;;;;;;1.73;0.98;;;;;;;;;;6848294;25;20310;-77
2024/04/09 08:21:24;;;;;;;1.98;0.80;;;;;;;;;;6851611;26;19997;-78
2024/04/09 08:24:24;;;;;;;1.70;0.90;;;;;;;;;;6858602;25;20012;-77
2024/04/09 08:27:26;;;;;;;1.63;1.23;;;;;;;;;;6860264;26;20163;-77
2024/04/09 08:30:26;;;;;;;1.55;0.90;;;;;;;;;;6847678;26;20292;-78
2024/04/09 08:33:27;;;;;;;1.23;0.90;;;;;;;;;;6820342;25;20327;-77
2024/04/09 08:36:28;;;;;;;1.97;0.90;;;;;;;;;;6810694;26;20066;-77
2024/04/09 08:39:28;;;;;;;2.38;1.00;;;;;;;;;;6826679;26;20733;-77
2024/04/09 08:42:28;;;;;;;1.60;0.90;;;;;;;;;;6875627;25;20025;-77
2024/04/09 08:45:29;;;;;;;1.20;0.83;;;;;;;;;;6855665;26;20279;-77
2024/04/09 08:48:30;;;;;;;1.10;1.00;;;;;;;;;;6812203;25;20305;-77
2024/04/09 08:51:31;;;;;;;2.13;0.98;;;;;;;;;;6843852;26;20037;-77
2024/04/09 08:54:31;;;;;;;1.50;0.90;;;;;;;;;;6441090;26;10000438;-77
2024/04/09 08:57:31;;;;;;;1.50;0.90;;;;;;;;;;6856283;26;20449;-77
2024/04/09 09:00:32;;;;;;;2.00;0.87;;;;;;;;;;6851223;26;20450;-81
2024/04/09 09:03:32;;;;;;;2.53;1.00;;;;;;;;;;6849833;25;20677;-81
2024/04/09 09:06:45;;;;;;;1.20;0.90;;;;;;;;;;6823829;26;20618;-81
2024/04/09 09:09:46;;;;;;;1.83;0.98;;;;;;;;;;6861330;26;19993;-81
2024/04/09 09:12:55;;;;;;;1.10;0.88;;;;;;;;;;6861678;26;20327;-80
2024/04/09 09:15:56;;;;;;;2.70;1.10;;;;;;;;;;6818187;25;20395;-80
2024/04/09 09:19:05;;;;;;;2.28;1.10;;;;;;;;;;6790574;26;19991;-75
2024/04/09 09:22:12;;;;;;;2.17;0.95;;;;;;;;;;6815050;26;20026;-75
2024/04/09 09:25:15;;;;;;;1.70;1.15;;;;;;;;;;6782110;26;20002;-76
2024/04/09 09:28:19;;;;;;;2.25;1.10;;;;;;;;;;6814880;26;19998;-76
2024/04/09 09:31:19;;;;;;;1.40;0.98;;;;;;;;;;6818245;25;19994;-79
2024/04/09 09:34:30;;;;;;;1.93;1.30;;;;;;;;;;6839711;26;20015;-76
2024/04/09 09:37:31;;;;;;;1.50;1.13;;;;;;;;;;6817414;26;20621;-76
2024/04/09 09:40:32;;;;;;;1.02;0.90;;;;;;;;;;6838944;25;19997;-76
2024/04/09 09:43:32;;;;;;;3.35;1.17;;;;;;;;;;6826243;26;20036;-77
2024/04/09 09:46:34;;;;;;;1.38;1.17;;;;;;;;;;6814579;26;19994;-76
2024/04/09 09:49:35;;;;;;;1.75;1.10;;;;;;;;;;6824187;25;20482;-76
2024/04/09 09:52:35;;;;;;;1.85;1.00;;;;;;;;;;6801939;26;20002;-76
2024/04/09 09:55:36;;;;;;;2.38;1.42;;;;;;;;;;6827911;26;20073;-78
2024/04/09 09:58:37;;;;;;;2.85;1.15;;;;;;;;;;6814337;26;19991;-77
2024/04/09 10:01:38;;;;;;;1.52;1.00;;;;;;;;;;6838195;26;20006;-77
2024/04/09 10:04:38;;;;;;;1.55;1.10;;;;;;;;;;6849883;25;20002;-76
2024/04/09 10:07:38;;;;;;;1.52;1.00;;;;;;;;;;6829509;25;19998;-77
2024/04/09 10:10:41;;;;;;;2.70;1.00;;;;;;;;;;6847838;25;20423;-78
2024/04/09 10:13:48;;;;;;;2.08;1.17;;;;;;;;;;6835744;26;20026;-77
2024/04/09 10:16:49;;;;;;;1.73;1.10;;;;;;;;;;6814186;26;20010;-77
2024/04/09 10:19:49;;;;;;;1.70;1.15;;;;;;;;;;6800206;26;20522;-78
2024/04/09 10:22:51;;;;;;;3.40;1.20;;;;;;;;;;6850853;25;20008;-77
2024/04/09 10:25:55;;;;;;;3.10;1.33;;;;;;;;;;6859651;26;20762;-76
2024/04/09 10:29:02;;;;;;;3.17;1.55;;;;;;;;;;6817734;26;19990;-81
2024/04/09 10:32:18;;;;;;;3.75;1.45;;;;;;;;;;6838211;26;20029;-81
2024/04/09 10:35:21;;;;;;;3.47;1.10;;;;;;;;;;6851422;26;19998;-81
2024/04/09 10:38:23;;;;;;;1.25;1.05;;;;;;;;;;6844605;25;19998;-81
2024/04/09 10:41:24;;;;;;;2.65;1.30;;;;;;;;;;6813380;26;19994;-81
2024/04/09 10:44:25;;;;;;;1.63;1.38;;;;;;;;;;6845284;26;20005;-80
2024/04/09 10:47:26;;;;;;;3.25;1.00;;;;;;;;;;6849832;26;20012;-82
2024/04/09 10:50:26;;;;;;;3.28;1.08;;;;;;;;;;6848957;26;20450;-81
2024/04/09 10:53:26;;;;;;;2.00;1.02;;;;;;;;;;6836629;25;20009;-80
2024/04/09 10:56:28;;;;;;;3.03;0.88;;;;;;;;;;6841534;25;19997;-80
2024/04/09 10:59:28;;;;;;;2.22;1.08;;;;;;;;;;6858095;26;20061;-79
2024/04/09 11:02:28;;;;;;;4.17;1.20;;;;;;;;;;6852335;26;20006;-79
2024/04/09 11:05:28;;;;;;;1.92;1.10;;;;;;;;;;6816144;26;20255;-77
2024/04/09 11:08:32;;;;;;;1.97;1.00;;;;;;;;;;6856953;26;19986;-77
2024/04/09 11:11:33;;;;;;;3.10;1.30;;;;;;;;;;6818931;26;20216;-78
2024/04/09 11:14:34;;;;;;;1.08;0.88;;;;;;;;;;6847729;25;20023;-75
2024/04/09 11:17:34;;;;;;;2.42;1.15;;;;;;;;;;6834031;26;20017;-75
2024/04/09 11:20:34;;;;;;;2.83;1.10;;;;;;;;;;6856096;26;19997;-74
2024/04/09 11:23:35;;;;;;;1.65;1.10;;;;;;;;;;6843394;26;20073;-74
2024/04/09 11:26:35;;;;;;;2.83;1.10;;;;;;;;;;6817260;26;19993;-74
2024/04/09 11:29:36;;;;;;;1.88;1.05;;;;;;;;;;6786261;25;20026;-74
2024/04/09 11:32:36;;;;;;;1.53;1.20;;;;;;;;;;6860662;26;20087;-74
2024/04/09 11:35:37;;;;;;;1.30;1.20;;;;;;;;;;6850208;25;20223;-74
2024/04/09 11:38:37;;;;;;;1.67;1.10;;;;;;;;;;6821799;26;20050;-76
2024/04/09 11:41:41;;;;;;;1.80;1.10;;;;;;;;;;6817260;26;20263;-76
2024/04/09 11:44:41;;;;;;;3.03;1.23;;;;;;;;;;6817014;26;20227;-76
2024/04/09 11:47:41;;;;;;;3.57;1.30;;;;;;;;;;6847663;26;20478;-76
2024/04/09 11:50:41;;;;;;;2.28;1.17;;;;;;;;;;6861658;26;20762;-76
2024/04/09 11:53:45;;;;;;;2.03;1.33;;;;;;;;;;6836220;25;20017;-76
2024/04/09 11:56:45;;;;;;;1.15;1.05;;;;;;;;;;6816636;26;19994;-76
2024/04/09 11:59:46;;;;;;;2.30;1.00;;;;;;;;;;6816401;26;20027;-77
2024/04/09 12:02:46;;;;;;;2.45;1.23;;;;;;;;;;6830202;26;20222;-76
2024/04/09 12:05:46;;;;;;;1.70;1.17;;;;;;;;;;6828701;26;20430;-76
2024/04/09 12:08:47;;;;;;;1.42;0.98;;;;;;;;;;6838323;25;20029;-76
2024/04/09 12:11:47;;;;;;;3.25;1.10;;;;;;;;;;6860290;26;20025;-76
2024/04/09 12:14:48;;;;;;;1.40;1.30;;;;;;;;;;6860127;25;20498;-76
2024/04/09 12:17:49;;;;;;;3.30;1.20;;;;;;;;;;6814761;26;20775;-76
2024/04/09 12:20:49;;;;;;;2.63;1.10;;;;;;;;;;6817631;26;20511;-77
2024/04/09 12:23:49;;;;;;;1.27;0.95;;;;;;;;;;6822626;25;20008;-77
2024/04/09 12:26:50;;;;;;;3.15;1.10;;;;;;;;;;6861984;26;20333;-76
2024/04/09 12:29:50;;;;;;;1.67;1.00;;;;;;;;;;6856616;26;19998;-76
2024/04/09 12:32:51;;;;;;;0.97;0.87;;;;;;;;;;6826552;26;20001;-76
2024/04/09 12:35:51;;;;;;;1.50;1.00;;;;;;;;;;6815361;26;19982;-76
2024/04/09 12:38:52;;;;;;;2.80;1.05;;;;;;;;;;6782029;26;20001;-76
2024/04/09 12:41:53;;;;;;;2.03;0.93;;;;;;;;;;6814893;25;20010;-76
2024/04/09 12:44:54;;;;;;;1.67;1.00;;;;;;;;;;6816547;26;20336;-76
2024/04/09 12:47:55;;;;;;;1.58;0.93;;;;;;;;;;6814383;26;20012;-76
2024/04/09 12:50:55;;;;;;;2.38;1.13;;;;;;;;;;6815113;26;19986;-74
2024/04/09 12:53:56;;;;;;;3.47;1.00;;;;;;;;;;6820700;25;20394;-75
2024/04/09 12:56:56;;;;;;;2.20;1.20;;;;;;;;;;6861455;26;19993;-74
2024/04/09 12:59:57;;;;;;;2.67;1.27;;;;;;;;;;6861223;26;20315;-74
2024/04/09 13:02:57;;;;;;;1.73;1.10;;;;;;;;;;6858160;26;20218;-75
2024/04/09 13:05:57;;;;;;;2.50;1.20;;;;;;;;;;6860316;26;20010;-74
2024/04/09 13:08:58;;;;;;;2.20;1.23;;;;;;;;;;6859793;26;19981;-75
2024/04/09 13:11:58;;;;;;;2.30;1.10;;;;;;;;;;6858902;25;20070;-75
2024/04/09 13:14:58;;;;;;;2.35;1.30;;;;;;;;;;6823399;26;20342;-74
2024/04/09 13:17:59;;;;;;;0.80;0.80;;;;;;;;;;6859252;26;20021;-74
2024/04/09 13:20:59;;;;;;;2.03;1.00;;;;;;;;;;6853424;26;20602;-74
2024/04/09 13:23:59;;;;;;;1.00;0.87;;;;;;;;;;6855502;25;20441;-74
2024/04/09 13:26:59;;;;;;;0.83;0.83;;;;;;;;;;6859928;26;20320;-75
2024/04/09 13:30:00;;;;;;;2.03;1.10;;;;;;;;;;6860711;26;20259;-74
2024/04/09 13:33:01;;;;;;;1.52;1.10;;;;;;;;;;6859186;25;20226;-74
2024/04/09 13:36:01;;;;;;;2.40;1.27;;;;;;;;;;6844628;26;20026;-74
2024/04/09 13:39:01;;;;;;;1.43;0.93;;;;;;;;;;6813345;26;20727;-74
2024/04/09 13:42:02;;;;;;;3.30;1.30;;;;;;;;;;6813494;25;20220;-74
2024/04/09 13:45:02;;;;;;;2.30;1.02;;;;;;;;;;6814593;26;20262;-75
2024/04/09 13:48:02;;;;;;;2.20;1.17;;;;;;;;;;6813277;26;20002;-72
2024/04/09 13:51:03;;;;;;;2.22;1.10;;;;;;;;;;6813797;26;19991;-72
2024/04/09 13:54:04;;;;;;;3.53;1.10;;;;;;;;;;6811319;26;20446;-73
2024/04/09 13:57:05;;;;;;;2.60;1.00;;;;;;;;;;6859838;26;19997;-73
2024/04/09 14:00:07;;;;;;;1.57;0.90;;;;;;;;;;6857727;25;20387;-75
2024/04/09 14:03:07;;;;;;;2.78;1.40;;;;;;;;;;6858267;26;20033;-75
2024/04/09 14:06:08;;;;;;;3.07;1.10;;;;;;;;;;6859266;26;20419;-75
2024/04/09 14:09:11;;;;;;;1.70;1.20;;;;;;;;;;6852307;26;20698;-75
2024/04/09 14:12:11;;;;;;;1.65;1.35;;;;;;;;;;6843617;26;20051;-74
2024/04/09 14:15:14;;;;;;;2.53;1.20;;;;;;;;;;6832477;25;20001;-75
2024/04/09 14:18:16;;;;;;;2.17;1.30;;;;;;;;;;6858032;26;19995;-75
2024/04/09 14:21:16;;;;;;;3.33;1.35;;;;;;;;;;6858328;26;20093;-75
2024/04/09 14:24:16;;;;;;;3.88;1.00;;;;;;;;;;6855847;25;19993;-75
2024/04/09 14:27:16;;;;;;;4.53;0.90;;;;;;;;;;6840094;26;19994;-75
2024/04/09 14:30:17;;;;;;;2.03;1.00;;;;;;;;;;6813709;26;19994;-75
2024/04/09 14:33:17;;;;;;;3.70;1.20;;;;;;;;;;6811940;26;20014;-75
2024/04/09 14:36:17;;;;;;;1.40;0.90;;;;;;;;;;6814101;26;20227;-75
2024/04/09 14:39:18;;;;;;;2.05;1.05;;;;;;;;;;6816392;26;20766;-75
2024/04/09 14:42:18;;;;;;;5.73;1.10;;;;;;;;;;6848535;25;20033;-75
2024/04/09 14:45:19;;;;;;;1.83;0.93;;;;;;;;;;6828634;26;19997;-75
2024/04/09 14:48:20;;;;;;;1.97;1.23;;;;;;;;;;6823685;25;19990;-75
2024/04/09 14:51:20;;;;;;;2.90;0.88;;;;;;;;;;6862880;26;20628;-75
2024/04/09 14:54:20;;;;;;;2.17;0.80;;;;;;;;;;6837378;26;20066;-77
2024/04/09 14:57:21;;;;;;;1.50;1.00;;;;;;;;;;6863413;26;20742;-77
2024/04/09 15:00:21;;;;;;;2.58;1.02;;;;;;;;;;6855459;26;20072;-77
2024/04/09 15:03:22;;;;;;;1.30;0.90;;;;;;;;;;6816130;26;20436;-77
2024/04/09 15:06:23;;;;;;;2.67;1.00;;;;;;;;;;6826607;26;20770;-77
2024/04/09 15:09:24;;;;;;;2.22;0.93;;;;;;;;;;6846741;26;19993;-77
2024/04/09 15:12:26;;;;;;;3.92;1.10;;;;;;;;;;6862984;26;20021;-77
2024/04/09 15:15:26;;;;;;;2.40;1.02;;;;;;;;;;6837994;26;20042;-77
2024/04/09 15:18:27;;;;;;;2.07;1.37;;;;;;;;;;6836350;25;20005;-77
2024/04/09 15:21:27;;;;;;;2.50;0.93;;;;;;;;;;6861990;26;20266;-77
2024/04/09 15:24:27;;;;;;;1.20;0.90;;;;;;;;;;6861644;26;20012;-77
2024/04/09 15:27:28;;;;;;;2.00;1.02;;;;;;;;;;6860461;25;19993;-77
2024/04/09 15:30:30;;;;;;;2.73;1.23;;;;;;;;;;6862873;26;19993;-77
2024/04/09 15:33:30;;;;;;;4.45;1.33;;;;;;;;;;6861202;26;20251;-77
2024/04/09 15:36:32;;;;;;;3.17;1.47;;;;;;;;;;6860021;26;20029;-77
2024/04/09 15:39:32;;;;;;;2.10;1.10;;;;;;;;;;6861685;26;20013;-77
2024/04/09 15:42:33;;;;;;;2.05;0.88;;;;;;;;;;6859740;25;20379;-77
2024/04/09 15:45:33;;;;;;;2.80;0.90;;;;;;;;;;6835834;26;19998;-76
2024/04/09 15:48:34;;;;;;;3.20;1.10;;;;;;;;;;6814682;26;19998;-77
2024/04/09 15:51:34;;;;;;;3.97;1.30;;;;;;;;;;6837478;26;19998;-77
2024/04/09 15:54:34;;;;;;;1.70;0.93;;;;;;;;;;6891299;25;20008;-77
2024/04/09 15:57:35;;;;;;;2.70;0.82;;;;;;;;;;6844090;25;20220;-77
2024/04/09 16:00:35;;;;;;;3.53;1.30;;;;;;;;;;6816943;26;20026;-77
2024/04/09 16:03:37;;;;;;;3.57;1.07;;;;;;;;;;6814839;26;20677;-77
2024/04/09 16:06:37;;;;;;;3.53;1.70;;;;;;;;;;6859804;26;19993;-77
2024/04/09 16:09:37;;;;;;;3.15;1.35;;;;;;;;;;6889467;25;20025;-77
2024/04/09 16:12:38;;;;;;;1.55;1.13;;;;;;;;;;6857378;26;20366;-77
2024/04/09 16:15:38;;;;;;;5.13;1.27;;;;;;;;;;6858103;25;20045;-77
2024/04/09 16:18:39;;;;;;;8.80;2.97;;;;;;;;;;6860832;26;19993;-77
2024/04/09 16:21:39;;;;;;;4.28;2.40;;;;;;;;;;6860318;26;20357;-77
2024/04/09 16:24:40;;;;;;;2.43;1.60;;;;;;;;;;6861283;26;19990;-77
2024/04/09 16:27:41;;;;;;;2.45;1.20;;;;;;;;;;6857137;25;19997;-77
2024/04/09 16:30:42;;;;;;;1.70;1.20;;;;;;;;;;6861718;26;20327;-77
2024/04/09 16:33:42;;;;;;;2.83;1.10;;;;;;;;;;6828083;26;19998;-77
2024/04/09 16:36:42;;;;;;;4.70;1.07;;;;;;;;;;6859414;26;20259;-77
2024/04/09 16:39:42;;;;;;;3.43;1.10;;;;;;;;;;6889955;25;20037;-77
2024/04/09 16:42:43;;;;;;;3.33;1.10;;;;;;;;;;6848441;25;19991;-77
2024/04/09 16:45:44;;;;;;;1.88;1.08;;;;;;;;;;6815888;26;19994;-77
2024/04/09 16:48:44;;;;;;;1.75;1.17;;;;;;;;;;6852026;26;20410;-77
2024/04/09 16:51:44;;;;;;;1.53;1.00;;;;;;;;;;6889579;25;20035;-77
2024/04/09 16:54:44;;;;;;;1.87;0.90;;;;;;;;;;6860991;26;20242;-77
2024/04/09 16:57:45;;;;;;;2.53;0.80;;;;;;;;;;6860621;26;20742;-77
2024/04/09 17:00:46;;;;;;;2.53;0.98;;;;;;;;;;6844019;25;20317;-77
2024/04/09 17:03:46;;;;;;;2.20;0.97;;;;;;;;;;6859455;26;19997;-77
2024/04/09 17:06:46;;;;;;;4.33;1.07;;;;;;;;;;6787243;26;20711;-77
2024/04/09 17:09:50;;;;;;;4.70;0.90;;;;;;;;;;6832547;26;20445;-77
2024/04/09 17:12:50;;;;;;;1.42;0.98;;;;;;;;;;6860836;25;19994;-77
2024/04/09 17:15:50;;;;;;;3.43;1.10;;;;;;;;;;6861077;26;20005;-77
2024/04/09 17:18:51;;;;;;;2.97;1.48;;;;;;;;;;6854962;25;20005;-77
2024/04/09 17:21:54;;;;;;;2.08;1.40;;;;;;;;;;6859891;26;19993;-77
2024/04/09 17:24:54;;;;;;;1.55;1.15;;;;;;;;;;6860304;26;19986;-77
2024/04/09 17:27:54;;;;;;;2.60;1.35;;;;;;;;;;6815617;25;20067;-77
2024/04/09 17:30:55;;;;;;;3.00;1.40;;;;;;;;;;6815325;26;20387;-75
2024/04/09 17:33:57;;;;;;;2.97;1.33;;;;;;;;;;6827010;25;20390;-74
2024/04/09 17:36:58;;;;;;;7.20;4.70;;;;;;;;;;6813261;26;19994;-74
2024/04/09 17:39:58;;;;;;;4.85;3.58;;;;;;;;;;6814421;26;20027;-75
2024/04/09 17:42:58;;;;;;;3.33;2.23;;;;;;;;;;6831678;26;20005;-74
2024/04/09 17:45:58;;;;;;;2.33;1.73;;;;;;;;;;6827536;26;20719;-74
2024/04/09 17:49:00;;;;;;;1.87;1.70;;;;;;;;;;6812796;26;20070;-75
2024/04/09 17:52:00;;;;;;;1.88;1.40;;;;;;;;;;6814567;26;20767;-75
2024/04/09 17:55:01;;;;;;;5.17;2.93;;;;;;;;;;6813434;26;20006;-75
2024/04/09 17:58:01;;;;;;;4.22;3.05;;;;;;;;;;6842185;26;19998;-75
2024/04/09 18:01:04;;;;;;;2.60;2.13;;;;;;;;;;6857897;25;19990;-75
2024/04/09 18:04:05;;;;;;;2.78;1.60;;;;;;;;;;6858100;26;20355;-75
2024/04/09 18:07:05;;;;;;;2.80;1.52;;;;;;;;;;6851748;25;20505;-75
2024/04/09 18:10:06;;;;;;;5.73;1.50;;;;;;;;;;6813954;26;19998;-74
2024/04/09 18:13:06;;;;;;;4.53;1.70;;;;;;;;;;6818059;26;20006;-74
2024/04/09 18:16:06;;;;;;;3.63;1.27;;;;;;;;;;6853777;26;20517;-75
2024/04/09 18:19:07;;;;;;;3.15;1.20;;;;;;;;;;6891806;25;20107;-74